createdAt,value
2022-12-08T00:01:31.069Z,71.18
2022-12-08T00:04:02.670Z,65.97
2022-12-08T00:06:53.204Z,68.72
2022-12-08T00:09:26.050Z,63.45
2022-12-08T00:11:57.705Z,53.75
2022-12-08T00:14:27.939Z,57.20
2022-12-08T00:16:55.696Z,61.17
2022-12-08T00:19:24.221Z,57.50
2022-12-08T00:21:51.983Z,60.33
2022-12-08T00:24:19.739Z,57.05
2022-12-08T00:26:47.975Z,57.38
2022-12-08T00:29:17.563Z,56.63
2022-12-08T00:31:45.185Z,63.47
2022-12-08T00:34:14.214Z,60.40
2022-12-08T00:36:42.252Z,66.60
2022-12-08T00:39:10.838Z,67.15
2022-12-08T00:41:56.564Z,67.03
2022-12-08T00:44:24.092Z,62.63
2022-12-08T00:46:51.641Z,57.72
2022-12-08T00:49:19.698Z,57.33
2022-12-08T00:51:47.215Z,61.40
2022-12-08T00:54:15.039Z,77.20
2022-12-08T00:56:42.410Z,63.55
2022-12-08T00:59:10.558Z,67.55
2022-12-08T01:01:38.193Z,63.33
2022-12-08T01:04:13.563Z,68.22
2022-12-08T01:06:41.128Z,60.42
2022-12-08T01:09:09.094Z,63.20
2022-12-08T01:11:37.062Z,56.10
2022-12-08T01:14:04.721Z,57.88
2022-12-08T01:16:35.655Z,59.20
2022-12-08T01:19:03.634Z,64.75
2022-12-08T01:21:31.076Z,58.63
2022-12-08T01:24:00.393Z,59.58
2022-12-08T01:26:28.040Z,61.65
2022-12-08T01:28:55.909Z,60.20
2022-12-08T01:31:23.507Z,55.88
2022-12-08T01:33:51.182Z,54.85
2022-12-08T01:36:26.179Z,61.53
2022-12-08T01:38:54.264Z,68.50
2022-12-08T01:41:23.949Z,67.72
2022-12-08T01:44:24.402Z,49.33
2022-12-08T01:46:53.876Z,53.42
2022-12-08T01:49:32.400Z,57.25
2022-12-08T01:52:04.308Z,54.10
2022-12-08T01:54:44.445Z,50.72
2022-12-08T01:57:17.801Z,49.45
2022-12-08T02:02:14.619Z,37.95
2022-12-08T02:04:42.170Z,41.05
2022-12-08T02:07:12.285Z,39.35
2022-12-08T02:09:40.871Z,38.35
2022-12-08T02:12:10.432Z,39.55
2022-12-08T02:14:37.904Z,37.72
2022-12-08T02:17:45.634Z,38.75
2022-12-08T02:20:19.077Z,44.38
2022-12-08T02:25:45.674Z,52.47
2022-12-08T02:28:38.726Z,59.35
2022-12-08T02:31:17.979Z,58.93
2022-12-08T02:34:09.910Z,69.57
2022-12-08T02:36:59.955Z,70.18
2022-12-08T02:40:05.600Z,67.40
2022-12-08T02:42:52.847Z,60.08
2022-12-08T02:45:26.112Z,60.60
2022-12-08T02:47:54.500Z,63.10
2022-12-08T02:50:21.939Z,52.17
2022-12-08T02:52:49.637Z,56.22
2022-12-08T02:55:25.296Z,52.20
2022-12-08T02:58:35.626Z,51.95
2022-12-08T03:01:26.080Z,48.00
2022-12-08T03:04:11.585Z,48.03
2022-12-08T03:07:04.272Z,44.53
2022-12-08T03:09:50.022Z,47.25
2022-12-08T03:12:25.605Z,43.35
2022-12-08T03:15:00.301Z,45.58
2022-12-08T03:17:31.267Z,44.80
2022-12-08T03:20:04.573Z,44.97
2022-12-08T03:22:33.626Z,48.47
2022-12-08T03:25:01.726Z,45.65
2022-12-08T03:27:31.465Z,43.33
2022-12-08T03:30:00.720Z,41.30
2022-12-08T03:32:34.976Z,44.03
2022-12-08T03:35:07.705Z,39.38
2022-12-08T03:37:40.179Z,46.78
2022-12-08T03:40:10.023Z,50.00
2022-12-08T03:42:37.452Z,45.50
2022-12-08T03:45:05.714Z,50.92
2022-12-08T03:47:33.104Z,44.13
2022-12-08T03:50:00.345Z,38.15
2022-12-08T03:52:27.787Z,37.35
2022-12-08T03:54:55.343Z,43.40
2022-12-08T03:57:22.762Z,53.53
2022-12-08T03:59:50.079Z,55.83
2022-12-08T04:02:17.466Z,50.47
2022-12-08T04:04:44.861Z,44.92
2022-12-08T04:07:12.310Z,49.72
2022-12-08T04:09:41.833Z,40.72
2022-12-08T04:12:09.630Z,42.85
2022-12-08T04:14:37.243Z,40.30
2022-12-08T04:17:04.700Z,42.42
2022-12-08T04:19:32.003Z,38.95
2022-12-08T04:21:59.317Z,39.42
2022-12-08T04:24:26.756Z,44.17
2022-12-08T04:26:54.024Z,44.03
2022-12-08T04:29:21.567Z,41.80
2022-12-08T04:31:48.969Z,44.35
2022-12-08T04:34:16.438Z,45.92
2022-12-08T04:36:43.737Z,45.30
2022-12-08T04:39:11.299Z,43.22
2022-12-08T04:41:38.751Z,55.97
2022-12-08T04:44:06.132Z,56.70
2022-12-08T04:46:33.438Z,52.72
2022-12-08T04:49:00.833Z,52.08
2022-12-08T04:51:28.279Z,51.60
2022-12-08T04:53:55.660Z,47.72
2022-12-08T04:56:23.033Z,50.85
2022-12-08T04:58:50.447Z,52.97
2022-12-08T05:01:18.023Z,55.08
2022-12-08T05:03:45.354Z,58.60
2022-12-08T05:06:14.202Z,53.90
2022-12-08T05:08:42.930Z,55.85
2022-12-08T05:11:11.770Z,54.42
2022-12-08T05:13:39.101Z,63.92
2022-12-08T05:16:11.982Z,78.38
2022-12-08T05:18:40.569Z,70.25
2022-12-08T05:21:09.020Z,80.18
2022-12-08T05:23:36.671Z,81.38
2022-12-08T05:26:04.339Z,64.32
2022-12-08T05:28:41.331Z,68.93
2022-12-08T05:31:10.220Z,64.20
2022-12-08T05:33:37.795Z,55.25
2022-12-08T05:36:05.419Z,62.58
2022-12-08T05:38:32.919Z,55.20
2022-12-08T05:41:00.439Z,168.27
2022-12-08T05:43:28.115Z,141.40
2022-12-08T05:45:55.651Z,135.02
2022-12-08T05:48:25.984Z,145.52
2022-12-08T05:50:54.293Z,105.70
2022-12-08T05:53:21.712Z,203.80
2022-12-08T05:55:49.503Z,210.18
2022-12-08T05:58:19.742Z,207.40
2022-12-08T06:00:48.911Z,163.75
2022-12-08T06:03:18.923Z,93.65
2022-12-08T06:05:47.936Z,73.75
2022-12-08T06:08:15.569Z,58.65
2022-12-08T06:10:44.948Z,53.55
2022-12-08T06:13:12.739Z,47.25
2022-12-08T06:15:40.962Z,43.95
2022-12-08T06:18:08.399Z,47.70
2022-12-08T06:20:35.819Z,50.97
2022-12-08T06:23:03.688Z,49.10
2022-12-08T06:25:31.169Z,51.17
2022-12-08T06:27:58.497Z,137.88
2022-12-08T06:30:26.271Z,134.35
2022-12-08T06:32:53.511Z,67.88
2022-12-08T06:35:20.600Z,58.67
2022-12-08T06:37:47.674Z,157.95
2022-12-08T06:40:14.894Z,274.17
2022-12-08T06:42:44.484Z,112.57
2022-12-08T06:45:14.007Z,61.78
2022-12-08T06:47:41.652Z,55.83
2022-12-08T06:50:10.652Z,52.78
2022-12-08T06:52:47.252Z,47.88
2022-12-08T06:55:50.677Z,51.83
2022-12-08T06:58:07.999Z,51.45
2022-12-08T07:00:35.300Z,51.47
2022-12-08T07:03:02.625Z,54.05
2022-12-08T07:05:29.857Z,48.03
2022-12-08T07:07:57.120Z,46.45
2022-12-08T07:10:24.641Z,56.00
2022-12-08T07:12:52.098Z,55.90
2022-12-08T07:15:21.248Z,56.40
2022-12-08T07:17:49.233Z,56.35
2022-12-08T07:20:16.592Z,48.35
2022-12-08T07:22:54.159Z,50.75
2022-12-08T07:25:21.496Z,55.10
2022-12-08T07:27:51.380Z,181.15
2022-12-08T07:30:20.262Z,282.23
2022-12-08T07:32:47.662Z,155.18
2022-12-08T07:35:14.878Z,69.70
2022-12-08T07:37:42.118Z,62.83
2022-12-08T07:40:10.163Z,63.28
2022-12-08T07:42:37.557Z,55.05
2022-12-08T07:45:05.122Z,52.67
2022-12-08T07:47:32.221Z,58.38
2022-12-08T07:49:59.407Z,49.50
2022-12-08T07:52:26.577Z,47.35
2022-12-08T07:54:53.610Z,46.53
2022-12-08T07:57:20.761Z,47.20
2022-12-08T07:59:47.930Z,51.83
2022-12-08T08:02:25.345Z,51.33
2022-12-08T08:04:54.456Z,52.97
2022-12-08T08:07:22.223Z,45.88
2022-12-08T08:09:49.351Z,52.63
2022-12-08T08:12:32.793Z,54.97
2022-12-08T08:17:29.429Z,62.60
2022-12-08T08:19:57.043Z,61.97
2022-12-08T08:22:25.731Z,68.30
2022-12-08T08:24:53.757Z,60.63
2022-12-08T08:27:21.314Z,62.63
2022-12-08T08:29:48.535Z,66.60
2022-12-08T08:32:15.740Z,67.72
2022-12-08T08:34:43.123Z,75.72
2022-12-08T08:37:10.378Z,77.80
2022-12-08T08:39:37.588Z,717.35
2022-12-08T08:42:05.025Z,476.38
2022-12-08T08:44:32.302Z,198.15
2022-12-08T08:46:59.426Z,83.22
2022-12-08T08:49:26.825Z,77.90
2022-12-08T08:51:54.016Z,88.18
2022-12-08T08:54:21.277Z,90.72
2022-12-08T08:56:48.563Z,83.32
2022-12-08T08:59:15.685Z,86.63
2022-12-08T09:01:43.034Z,82.45
2022-12-08T09:04:11.102Z,81.72
2022-12-08T09:06:38.434Z,86.25
2022-12-08T09:09:05.954Z,102.45
2022-12-08T09:11:33.408Z,95.18
2022-12-08T09:14:00.543Z,123.57
2022-12-08T09:16:31.034Z,109.97
2022-12-08T09:19:01.520Z,90.60
2022-12-08T09:21:30.702Z,88.70
2022-12-08T09:23:59.286Z,98.07
2022-12-08T09:26:28.189Z,97.25
2022-12-08T09:28:57.220Z,89.80
2022-12-08T09:31:25.251Z,81.65
2022-12-08T09:33:52.726Z,81.85
2022-12-08T09:36:20.712Z,70.30
2022-12-08T09:38:50.152Z,75.95
2022-12-08T09:41:24.567Z,95.82
2022-12-08T09:44:29.475Z,78.38
2022-12-08T09:46:59.124Z,77.65
2022-12-08T09:49:38.591Z,81.35
2022-12-08T09:52:12.745Z,91.10
2022-12-08T09:54:40.326Z,128.35
2022-12-08T09:57:15.069Z,334.80
2022-12-08T09:59:48.579Z,428.83
2022-12-08T10:02:28.485Z,178.00
2022-12-08T10:04:57.202Z,100.05
2022-12-08T10:07:58.801Z,83.95
2022-12-08T10:10:47.028Z,114.78
2022-12-08T10:13:26.415Z,77.78
2022-12-08T10:15:53.608Z,101.88
2022-12-08T10:18:27.704Z,87.68
2022-12-08T10:21:00.414Z,69.20
2022-12-08T10:23:27.509Z,67.93
2022-12-08T10:26:07.960Z,75.18
2022-12-08T10:28:41.388Z,61.03
2022-12-08T10:31:25.707Z,55.42
2022-12-08T10:34:24.398Z,58.50
2022-12-08T10:36:59.171Z,66.60
2022-12-08T10:39:39.693Z,62.08
2022-12-08T10:42:15.878Z,72.78
2022-12-08T10:45:01.004Z,82.82
2022-12-08T10:47:29.470Z,85.43
2022-12-08T10:50:15.595Z,65.35
2022-12-08T10:52:42.836Z,66.90
2022-12-08T10:55:21.056Z,62.50
2022-12-08T10:57:51.474Z,57.50
2022-12-08T11:00:27.475Z,627.65
2022-12-08T11:03:05.367Z,68.25
2022-12-08T11:05:37.331Z,51.65
2022-12-08T11:08:06.137Z,60.42
2022-12-08T11:10:46.451Z,55.17
2022-12-08T11:13:21.481Z,59.75
2022-12-08T11:15:49.951Z,58.67
2022-12-08T11:18:28.235Z,45.30
2022-12-08T11:21:07.761Z,47.97
2022-12-08T11:23:36.828Z,40.90
2022-12-08T11:26:24.567Z,49.35
2022-12-08T11:28:52.350Z,50.40
2022-12-08T11:31:43.688Z,54.55
2022-12-08T11:34:36.551Z,51.40
2022-12-08T11:37:17.719Z,54.67
2022-12-08T11:39:49.580Z,48.47
2022-12-08T11:42:20.627Z,50.10
2022-12-08T11:44:57.568Z,52.35
2022-12-08T11:47:25.036Z,49.38
2022-12-08T11:50:02.377Z,47.70
2022-12-08T11:52:45.962Z,57.90
2022-12-08T11:56:04.465Z,58.92
2022-12-08T11:59:29.069Z,54.05
2022-12-08T12:01:58.342Z,60.22
2022-12-08T12:04:38.075Z,52.03
2022-12-08T12:07:21.677Z,45.42
2022-12-08T12:10:23.687Z,44.88
2022-12-08T12:13:06.267Z,47.40
2022-12-08T12:16:29.089Z,48.95
2022-12-08T12:19:02.741Z,37.05
2022-12-08T12:21:34.866Z,35.42
2022-12-08T12:24:19.676Z,39.25
2022-12-08T12:27:16.414Z,40.90
2022-12-08T12:29:55.692Z,37.45
2022-12-08T12:32:24.762Z,37.25
2022-12-08T12:35:02.642Z,33.00
2022-12-08T12:37:40.009Z,33.85
2022-12-08T12:40:20.763Z,38.47
2022-12-08T12:43:09.844Z,40.65
2022-12-08T12:45:43.584Z,53.65
2022-12-08T12:48:22.676Z,66.13
2022-12-08T12:50:51.987Z,49.47
2022-12-08T12:53:19.122Z,45.67
2022-12-08T12:55:46.324Z,49.13
2022-12-08T12:58:28.910Z,45.38
2022-12-08T13:01:14.261Z,49.20
2022-12-08T13:03:50.042Z,70.07
2022-12-08T13:06:35.148Z,55.78
2022-12-08T13:09:21.517Z,51.45
2022-12-08T13:11:58.644Z,48.40
2022-12-08T13:14:38.099Z,43.60
2022-12-08T13:17:11.706Z,45.88
2022-12-08T13:19:40.882Z,42.92
2022-12-08T13:22:45.810Z,45.90
2022-12-08T13:25:45.775Z,47.97
2022-12-08T13:28:15.905Z,44.72
2022-12-08T13:30:44.846Z,36.80
2022-12-08T13:33:19.182Z,39.13
2022-12-08T13:35:53.675Z,36.10
2022-12-08T13:38:25.483Z,42.10
2022-12-08T13:40:55.893Z,43.72
2022-12-08T13:44:24.810Z,42.95
2022-12-08T13:47:31.660Z,48.10
2022-12-08T13:58:28.520Z,52.03
2022-12-08T14:01:08.738Z,52.85
2022-12-08T14:06:49.539Z,51.53
2022-12-08T14:09:23.368Z,55.03
2022-12-08T14:11:52.788Z,58.53
2022-12-08T14:14:46.277Z,61.85
2022-12-08T14:17:15.507Z,61.85
2022-12-08T14:19:45.027Z,65.07
2022-12-08T14:22:15.514Z,73.53
2022-12-08T14:24:48.286Z,74.10
2022-12-08T14:27:20.919Z,70.55
2022-12-08T14:29:52.723Z,82.95
2022-12-08T14:32:30.359Z,53.78
2022-12-08T14:35:20.819Z,60.05
2022-12-08T14:38:16.477Z,58.50
2022-12-08T14:40:53.212Z,82.07
2022-12-08T14:43:27.332Z,78.07
2022-12-08T14:46:01.493Z,68.05
2022-12-08T14:48:34.098Z,91.65
2022-12-08T14:51:09.415Z,183.77
2022-12-08T14:53:43.485Z,98.88
2022-12-08T14:56:24.799Z,103.80
2022-12-08T14:59:21.204Z,131.48
2022-12-08T15:01:51.600Z,131.75
2022-12-08T15:04:24.796Z,132.82
2022-12-08T15:06:54.442Z,107.95
2022-12-08T15:09:50.099Z,127.78
2022-12-08T15:12:27.041Z,162.55
2022-12-08T15:15:01.727Z,139.73
2022-12-08T15:17:40.847Z,92.50
2022-12-08T15:20:31.686Z,109.18
2022-12-08T15:23:02.433Z,171.93
2022-12-08T15:25:29.793Z,170.38
2022-12-08T15:27:58.189Z,233.63
2022-12-08T15:30:26.686Z,208.38
2022-12-08T15:32:56.254Z,294.73
2022-12-08T15:35:23.732Z,232.15
2022-12-08T15:37:51.031Z,378.15
2022-12-08T15:40:22.967Z,442.63
2022-12-08T15:42:50.284Z,753.08
2022-12-08T15:45:18.155Z,401.52
2022-12-08T15:47:46.141Z,317.40
2022-12-08T15:50:18.589Z,304.48
2022-12-08T15:52:45.896Z,290.92
2022-12-08T15:55:19.031Z,487.15
2022-12-08T16:00:54.140Z,173.10
2022-12-08T16:04:09.416Z,130.95
2022-12-08T16:09:20.903Z,117.72
2022-12-08T16:12:09.605Z,105.88
2022-12-08T16:17:26.383Z,112.93
2022-12-08T16:19:53.601Z,116.72
2022-12-08T16:22:54.116Z,101.28
2022-12-08T16:25:20.412Z,99.72
2022-12-08T16:28:36.876Z,99.45
2022-12-08T16:30:41.838Z,119.20
2022-12-08T16:33:10.733Z,107.90
2022-12-08T16:35:38.217Z,101.40
2022-12-08T16:38:05.833Z,132.30
2022-12-08T16:40:33.256Z,181.35
2022-12-08T16:43:00.900Z,140.85
2022-12-08T16:45:30.337Z,125.10
2022-12-08T16:48:02.009Z,141.18
2022-12-08T16:50:34.842Z,177.23
2022-12-08T16:53:08.455Z,140.73
2022-12-08T16:55:36.288Z,116.55
2022-12-08T16:58:03.789Z,126.10
2022-12-08T17:00:37.071Z,135.80
2022-12-08T17:03:08.861Z,133.05
2022-12-08T17:05:39.292Z,115.68
2022-12-08T17:08:06.923Z,128.73
2022-12-08T17:10:39.541Z,119.25
2022-12-08T17:13:07.722Z,135.07
2022-12-08T17:15:35.602Z,124.25
2022-12-08T17:18:03.490Z,123.15
2022-12-08T17:20:30.762Z,129.70
2022-12-08T17:22:58.817Z,122.72
2022-12-08T17:25:27.128Z,102.93
2022-12-08T17:27:54.713Z,106.07
2022-12-08T17:30:22.197Z,93.70
2022-12-08T17:32:49.976Z,103.72
2022-12-08T17:35:17.277Z,88.00
2022-12-08T17:37:44.658Z,100.57
2022-12-08T17:40:12.010Z,98.70
2022-12-08T17:42:39.317Z,95.35
2022-12-08T17:45:08.265Z,105.03
2022-12-08T17:47:35.742Z,101.35
2022-12-08T17:50:04.537Z,81.70
2022-12-08T17:52:31.915Z,88.90
2022-12-08T17:54:59.423Z,86.32
2022-12-08T17:57:26.773Z,91.05
2022-12-08T17:59:54.084Z,81.45
2022-12-08T18:02:21.539Z,86.07
2022-12-08T18:04:48.876Z,203.85
2022-12-08T18:07:16.704Z,652.63
2022-12-08T18:09:43.878Z,680.35
2022-12-08T18:12:11.552Z,221.07
2022-12-08T18:14:38.749Z,103.78
2022-12-08T18:17:06.189Z,99.90
2022-12-08T18:19:33.438Z,88.47
2022-12-08T18:22:01.985Z,93.65
2022-12-08T18:24:32.770Z,91.07
2022-12-08T18:26:59.956Z,104.75
2022-12-08T18:29:27.760Z,107.38
2022-12-08T18:31:55.138Z,96.78
2022-12-08T18:34:22.768Z,86.15
2022-12-08T18:36:50.046Z,86.03
2022-12-08T18:39:29.781Z,108.90
2022-12-08T18:41:58.749Z,108.03
2022-12-08T18:44:26.086Z,112.60
2022-12-08T18:46:53.277Z,116.97
2022-12-08T18:49:21.008Z,103.20
2022-12-08T18:51:48.373Z,101.10
2022-12-08T18:54:15.773Z,102.15
2022-12-08T18:56:43.141Z,102.63
2022-12-08T18:59:12.557Z,93.65
2022-12-08T19:01:40.664Z,107.28
2022-12-08T19:06:57.802Z,103.93
2022-12-08T19:09:27.079Z,108.60
2022-12-08T19:11:55.234Z,100.30
2022-12-08T19:14:28.100Z,106.40
2022-12-08T19:16:57.759Z,120.75
2022-12-08T19:19:26.120Z,131.27
2022-12-08T19:21:53.875Z,129.23
2022-12-08T19:24:21.933Z,153.52
2022-12-08T19:26:49.184Z,168.38
2022-12-08T19:29:17.175Z,131.00
2022-12-08T19:31:44.610Z,108.60
2022-12-08T19:34:15.710Z,117.75
2022-12-08T19:36:44.210Z,130.63
2022-12-08T19:39:35.377Z,133.40
2022-12-08T19:42:22.272Z,143.77
2022-12-08T19:44:52.756Z,151.57
2022-12-08T19:47:26.405Z,145.80
2022-12-08T19:50:16.765Z,159.35
2022-12-08T19:52:44.703Z,149.70
2022-12-08T19:55:12.822Z,152.68
2022-12-08T19:57:40.592Z,116.55
2022-12-08T20:00:09.656Z,564.05
2022-12-08T20:02:37.813Z,1117.88
2022-12-08T20:05:06.531Z,277.88
2022-12-08T20:07:37.236Z,128.23
2022-12-08T20:10:08.719Z,118.32
2022-12-08T20:12:36.167Z,121.97
2022-12-08T20:15:03.991Z,139.98
2022-12-08T20:17:31.168Z,118.35
2022-12-08T20:20:03.877Z,138.50
2022-12-08T20:22:34.516Z,131.10
2022-12-08T20:25:02.875Z,126.80
2022-12-08T20:27:31.099Z,114.10
2022-12-08T20:29:58.624Z,118.13
2022-12-08T20:32:26.161Z,133.07
2022-12-08T20:34:54.122Z,146.98
2022-12-08T20:37:21.498Z,126.85
2022-12-08T20:39:48.981Z,117.40
2022-12-08T20:42:21.172Z,119.65
2022-12-08T20:44:48.687Z,128.13
2022-12-08T20:47:16.724Z,129.85
2022-12-08T20:49:43.971Z,140.85
2022-12-08T20:52:11.567Z,125.72
2022-12-08T20:54:39.181Z,122.88
2022-12-08T20:57:09.875Z,121.60
2022-12-08T20:59:39.484Z,113.90
2022-12-08T21:02:07.682Z,127.65
2022-12-08T21:04:36.018Z,125.07
2022-12-08T21:07:03.390Z,118.85
2022-12-08T21:09:31.473Z,107.43
2022-12-08T21:11:59.809Z,119.75
2022-12-08T21:14:29.437Z,112.72
2022-12-08T21:16:59.945Z,121.03
2022-12-08T21:19:28.020Z,122.72
2022-12-08T21:21:55.463Z,125.80
2022-12-08T21:24:22.921Z,94.45
2022-12-08T21:26:50.499Z,99.82
2022-12-08T21:29:17.987Z,99.13
2022-12-08T21:31:45.593Z,96.30
2022-12-08T21:34:13.132Z,96.32
2022-12-08T21:36:40.619Z,93.72
2022-12-08T21:39:12.853Z,102.88
2022-12-08T21:41:58.726Z,97.32
2022-12-08T21:44:26.448Z,103.57
2022-12-08T21:46:53.976Z,96.25
2022-12-08T21:49:21.481Z,92.18
2022-12-08T21:51:48.789Z,93.88
2022-12-08T21:54:19.072Z,102.40
2022-12-08T21:56:49.175Z,95.10
2022-12-08T21:59:17.707Z,96.93
2022-12-08T22:01:45.498Z,91.53
2022-12-08T22:04:18.212Z,91.97
2022-12-08T22:06:45.996Z,99.50
2022-12-08T22:09:15.282Z,100.18
2022-12-08T22:11:43.950Z,82.97
2022-12-08T22:14:14.830Z,86.90
2022-12-08T22:16:43.203Z,85.40
2022-12-08T22:19:11.056Z,89.25
2022-12-08T22:21:38.443Z,92.57
2022-12-08T22:24:06.354Z,87.85
2022-12-08T22:26:33.958Z,81.05
2022-12-08T22:29:01.350Z,82.63
2022-12-08T22:31:28.505Z,95.85
2022-12-08T22:33:55.856Z,87.28
2022-12-08T22:36:25.456Z,95.00
2022-12-08T22:38:53.452Z,96.18
2022-12-08T22:41:21.592Z,94.60
2022-12-08T22:43:49.907Z,91.40
2022-12-08T22:46:20.607Z,77.07
2022-12-08T22:48:48.525Z,88.25
2022-12-08T22:51:15.833Z,85.97
2022-12-08T22:53:43.358Z,78.80
2022-12-08T22:56:12.708Z,90.75
2022-12-08T22:58:41.352Z,88.95
2022-12-08T23:01:19.478Z,80.57
2022-12-08T23:03:46.945Z,83.32
2022-12-08T23:06:14.257Z,76.50
2022-12-08T23:08:41.791Z,86.18
2022-12-08T23:11:09.100Z,81.20
2022-12-08T23:13:38.285Z,76.35
2022-12-08T23:16:08.568Z,83.90
2022-12-08T23:18:36.662Z,82.00
2022-12-08T23:21:06.421Z,87.88
2022-12-08T23:23:34.642Z,78.68
2022-12-08T23:26:01.873Z,83.53
2022-12-08T23:28:29.322Z,83.28
2022-12-08T23:30:56.797Z,69.55
2022-12-08T23:33:24.074Z,83.90
2022-12-08T23:35:58.284Z,85.13
2022-12-08T23:38:26.401Z,75.30
2022-12-08T23:40:53.807Z,87.55
2022-12-08T23:43:21.145Z,73.05
2022-12-08T23:45:48.595Z,80.30
2022-12-08T23:48:16.121Z,76.05
2022-12-08T23:50:43.869Z,76.82
2022-12-08T23:53:11.167Z,68.70
2022-12-08T23:55:38.434Z,76.43
2022-12-08T23:58:05.666Z,62.80
